Terminal Aerodrome Forecast
Issued by NWS

Home | Current Version | Previous Version | Text Only | Print | Product List | Glossary On
Versions: 1 2 3 4 5 6 7 8 9 10 11 12 13 14 15 16 17
000
FTPA31 PHFO 240121 AAA
TAFHKO
TAF AMD
PHKO 240121Z 2401/2424 20014KT P6SM VCSH SCT015 BKN035 OVC045
     FM240600 19020KT P6SM -SHRA SCT025 BKN045
     FM242000 18012KT P6SM SCT025 BKN045=

USA.gov is the U.S. government's official web portal to all federal, state and local government web resources and services.